TimeEST,TemperatureF,Dew PointF,Humidity,Sea Level PressureIn,VisibilityMPH,Wind Direction,Wind SpeedMPH,Gust SpeedMPH,PrecipitationIn,Events,Conditions,WindDirDegrees,DateUTC
12:15 AM,43.7,28.9,56,30.08,10.0,WSW,5.8,-,N/A,,Clear,240,2013-01-01 05:15:00
12:35 AM,43.9,28.8,55,30.07,10.0,WSW,4.6,-,N/A,,Clear,240,2013-01-01 05:35:00
12:55 AM,43.7,28.6,55,30.07,10.0,WSW,4.6,-,N/A,,Clear,240,2013-01-01 05:55:00
1:15 AM,43.3,29.1,57,30.07,10.0,WSW,3.5,-,N/A,,Scattered Clouds,240,2013-01-01 06:15:00
1:35 AM,43.2,29.1,58,30.06,10.0,SW,3.5,-,N/A,,Clear,230,2013-01-01 06:35:00
1:55 AM,43.2,28.9,57,30.05,10.0,SW,3.5,-,N/A,,Clear,230,2013-01-01 06:55:00
2:15 AM,43.0,29.1,58,30.05,10.0,Calm,Calm,-,N/A,,Clear,0,2013-01-01 07:15:00
2:35 AM,42.8,29.1,58,30.05,10.0,Calm,Calm,-,N/A,,Scattered Clouds,0,2013-01-01 07:35:00
2:55 AM,43.0,29.1,58,30.06,10.0,WSW,4.6,-,N/A,,Scattered Clouds,250,2013-01-01 07:55:00
3:15 AM,43.2,29.1,58,30.06,10.0,WSW,4.6,-,N/A,,Clear,240,2013-01-01 08:15:00
3:35 AM,43.0,29.1,58,30.06,10.0,WSW,3.5,-,N/A,,Clear,240,2013-01-01 08:35:00
4:15 AM,42.6,29.5,60,30.04,10.0,SW,4.6,-,N/A,,Mostly Cloudy,220,2013-01-01 09:15:00
4:35 AM,42.1,29.8,62,30.03,10.0,Calm,Calm,-,N/A,,Mostly Cloudy,0,2013-01-01 09:35:00
4:55 AM,41.7,30.2,64,30.06,10.0,West,4.6,-,N/A,,Scattered Clouds,260,2013-01-01 09:55:00
5:15 AM,42.1,30.2,63,30.05,10.0,SSW,4.6,-,N/A,,Overcast,200,2013-01-01 10:15:00
5:35 AM,42.1,30.2,63,30.04,10.0,SSW,3.5,-,N/A,,Overcast,210,2013-01-01 10:35:00
5:55 AM,42.1,30.6,64,30.04,10.0,SW,3.5,-,N/A,,Overcast,230,2013-01-01 10:55:00
6:15 AM,42.1,30.7,64,30.04,10.0,Calm,Calm,-,N/A,,Overcast,0,2013-01-01 11:15:00
6:35 AM,42.3,30.9,64,30.03,10.0,SW,3.5,-,N/A,,Overcast,230,2013-01-01 11:35:00
6:55 AM,42.4,30.6,63,30.03,10.0,SW,5.8,-,N/A,,Overcast,220,2013-01-01 11:55:00
7:15 AM,42.6,31.1,64,30.03,10.0,Calm,Calm,-,N/A,,Overcast,0,2013-01-01 12:15:00
7:35 AM,42.8,31.6,65,30.04,10.0,SW,3.5,-,N/A,,Overcast,220,2013-01-01 12:35:00
7:55 AM,43.5,31.8,63,30.04,10.0,West,3.5,-,N/A,,Light Drizzle,260,2013-01-01 12:55:00
8:15 AM,43.3,32.0,64,30.04,10.0,SW,3.5,-,N/A,,Overcast,230,2013-01-01 13:15:00
8:35 AM,42.8,33.6,70,30.05,10.0,SW,3.5,-,N/A,Rain,Light Rain,230,2013-01-01 13:35:00
8:55 AM,42.1,35.2,77,30.05,10.0,WSW,4.6,-,N/A,Rain,Rain,240,2013-01-01 13:55:00
9:15 AM,42.3,35.1,76,30.03,10.0,SSW,8.1,-,N/A,Rain,Light Rain,200,2013-01-01 14:15:00
9:35 AM,43.0,36.3,77,30.03,10.0,SW,5.8,-,N/A,,Light Drizzle,220,2013-01-01 14:35:00
10:15 AM,45.1,36.7,72,30.03,10.0,SW,6.9,-,N/A,,Mostly Cloudy,230,2013-01-01 15:15:00
10:35 AM,45.7,37.0,72,30.03,10.0,WSW,5.8,-,N/A,,Scattered Clouds,240,2013-01-01 15:35:00
10:55 AM,45.5,36.5,71,30.01,10.0,SW,6.9,-,N/A,,Scattered Clouds,230,2013-01-01 15:55:00
11:15 AM,45.5,36.9,72,29.99,10.0,SW,6.9,-,N/A,,Overcast,230,2013-01-01 16:15:00
11:35 AM,45.7,37.4,73,29.98,10.0,WSW,4.6,-,N/A,,Mostly Cloudy,240,2013-01-01 16:35:00
11:55 AM,45.5,37.6,74,29.98,10.0,West,8.1,-,N/A,Rain,Light Rain,260,2013-01-01 16:55:00
12:15 PM,45.5,37.6,74,29.99,10.0,West,5.8,-,N/A,,Light Drizzle,280,2013-01-01 17:15:00
12:35 PM,45.5,37.9,75,29.97,10.0,WSW,4.6,-,N/A,Rain,Light Rain,240,2013-01-01 17:35:00
12:55 PM,46.0,38.7,75,29.96,10.0,SW,8.1,-,N/A,,Light Drizzle,230,2013-01-01 17:55:00
1:15 PM,45.9,39.2,78,29.94,10.0,SW,11.5,17.3,N/A,Rain,Light Rain,220,2013-01-01 18:15:00
1:35 PM,45.9,41.0,83,29.96,10.0,WNW,6.9,-,N/A,Rain,Light Rain,290,2013-01-01 18:35:00
1:55 PM,45.7,41.0,84,29.94,10.0,SW,6.9,-,N/A,Rain,Light Rain,220,2013-01-01 18:55:00
2:15 PM,46.0,41.9,85,29.95,10.0,West,6.9,-,N/A,,Overcast,260,2013-01-01 19:15:00
2:35 PM,45.9,41.5,85,29.92,10.0,SW,10.4,-,N/A,Rain,Light Rain,220,2013-01-01 19:35:00
2:55 PM,46.2,42.3,86,29.94,10.0,WSW,5.8,-,N/A,,Overcast,250,2013-01-01 19:55:00
3:15 PM,46.4,42.4,86,29.94,10.0,WSW,5.8,-,N/A,,Overcast,250,2013-01-01 20:15:00
3:35 PM,46.8,43.0,87,29.94,10.0,WSW,6.9,-,N/A,,Overcast,240,2013-01-01 20:35:00
3:55 PM,46.6,43.0,87,29.94,10.0,SW,5.8,-,N/A,Rain,Light Rain,230,2013-01-01 20:55:00
4:15 PM,46.4,43.7,90,29.91,10.0,SSW,9.2,16.1,N/A,Rain,Light Rain,200,2013-01-01 21:15:00
4:35 PM,46.0,44.1,93,29.95,7.0,WSW,5.8,-,N/A,,Light Drizzle,240,2013-01-01 21:35:00
4:55 PM,46.0,44.2,93,29.95,7.0,West,4.6,-,N/A,Rain,Light Rain,280,2013-01-01 21:55:00
5:15 PM,46.2,44.4,93,29.95,7.0,WSW,3.5,-,N/A,Rain,Light Rain,240,2013-01-01 22:15:00
5:35 PM,46.0,44.6,95,29.96,7.0,WSW,4.6,-,N/A,Rain,Light Rain,250,2013-01-01 22:35:00
5:55 PM,46.0,44.8,95,29.96,7.0,SSW,3.5,-,N/A,Rain,Light Rain,200,2013-01-01 22:55:00
6:15 PM,45.9,45.0,97,29.96,5.0,WNW,3.5,-,N/A,Rain,Light Rain,290,2013-01-01 23:15:00
6:35 PM,46.0,45.5,98,29.96,5.0,Calm,Calm,-,N/A,Rain,Light Rain,0,2013-01-01 23:35:00
6:55 PM,46.0,45.5,98,29.97,5.0,Calm,Calm,-,N/A,Rain,Light Rain,0,2013-01-01 23:55:00
7:15 PM,46.2,45.5,97,29.98,5.0,Calm,Calm,-,0.01,,Light Drizzle,0,2013-01-02 00:15:00
7:35 PM,46.4,45.5,97,29.99,7.0,Calm,Calm,-,0.01,,Drizzle,0,2013-01-02 00:35:00
7:55 PM,46.4,45.5,97,29.99,5.0,Calm,Calm,-,0.01,Rain,Light Rain,0,2013-01-02 00:55:00
8:15 PM,46.4,45.5,97,29.97,7.0,SSW,3.5,-,0.01,Rain,Light Rain,200,2013-01-02 01:15:00
8:35 PM,46.4,45.5,97,29.97,4.0,Calm,Calm,-,0.01,Rain,Light Rain,0,2013-01-02 01:35:00
8:55 PM,45.7,45.1,98,29.98,3.0,Calm,Calm,-,0.02,Rain,Light Rain,0,2013-01-02 01:55:00
9:15 PM,45.3,44.8,98,29.98,2.0,Calm,Calm,-,N/A,Rain,Light Rain,0,2013-01-02 02:15:00
9:35 PM,45.5,45.3,99,29.98,2.5,Calm,Calm,-,0.01,Rain,Rain,0,2013-01-02 02:35:00
9:55 PM,45.3,45.1,99,29.97,2.5,Calm,Calm,-,0.02,Rain,Light Rain,0,2013-01-02 02:55:00
10:15 PM,45.0,44.8,99,29.97,1.5,Calm,Calm,-,N/A,Rain,Light Rain,0,2013-01-02 03:15:00
10:35 PM,44.8,44.8,100,29.98,1.2,Calm,Calm,-,N/A,Rain,Light Rain,0,2013-01-02 03:35:00
10:55 PM,44.8,44.8,100,29.98,1.2,Calm,Calm,-,0.02,Rain,Rain,0,2013-01-02 03:55:00
11:15 PM,44.8,44.8,100,29.97,1.5,Calm,Calm,-,0.01,Rain,Light Rain,0,2013-01-02 04:15:00
11:35 PM,44.6,44.6,100,29.97,0.8,Calm,Calm,-,0.03,Rain,Rain,0,2013-01-02 04:35:00
11:55 PM,44.6,44.6,100,29.96,0.8,Calm,Calm,-,0.05,Rain,Light Rain,0,2013-01-02 04:55:00